createdAt,value
2018-04-18T00:02:09.244Z,60.60
2018-04-18T00:04:37.155Z,60.50
2018-04-18T00:07:05.162Z,60.60
2018-04-18T00:09:33.872Z,60.60
2018-04-18T00:12:01.798Z,60.50
2018-04-18T00:14:29.817Z,60.60
2018-04-18T00:16:57.756Z,60.60
2018-04-18T00:19:26.504Z,60.50
2018-04-18T00:21:54.437Z,60.50
2018-04-18T00:24:22.443Z,60.50
2018-04-18T00:26:50.469Z,60.50
2018-04-18T00:29:18.473Z,60.50
2018-04-18T00:31:46.483Z,60.50
2018-04-18T00:34:15.175Z,60.60
2018-04-18T00:36:43.887Z,60.50
2018-04-18T00:39:11.915Z,60.50
2018-04-18T00:41:39.967Z,60.40
2018-04-18T00:44:07.989Z,60.40
2018-04-18T00:46:35.928Z,60.50
2018-04-18T00:49:03.886Z,60.50
2018-04-18T00:51:31.836Z,60.50
2018-04-18T00:53:59.752Z,60.60
2018-04-18T00:56:27.711Z,60.50
2018-04-18T00:58:56.473Z,60.50
2018-04-18T01:01:24.416Z,60.50
2018-04-18T01:03:52.422Z,60.60
2018-04-18T01:06:20.391Z,60.70
2018-04-18T01:08:48.405Z,60.70
2018-04-18T01:11:16.329Z,60.70
2018-04-18T01:13:44.336Z,60.70
2018-04-18T01:16:12.295Z,60.70
2018-04-18T01:18:41.064Z,60.80
2018-04-18T01:21:09.761Z,60.90
2018-04-18T01:23:38.502Z,60.80
2018-04-18T01:26:06.529Z,60.80
2018-04-18T01:28:34.533Z,60.90
2018-04-18T01:31:02.463Z,60.90
2018-04-18T01:33:31.306Z,60.90
2018-04-18T01:35:59.294Z,60.90
2018-04-18T01:38:27.323Z,60.90
2018-04-18T01:40:55.308Z,61.00
2018-04-18T01:43:23.237Z,61.00
2018-04-18T01:45:51.255Z,61.00
2018-04-18T01:48:19.167Z,61.00
2018-04-18T01:50:47.124Z,61.00
2018-04-18T01:53:15.901Z,60.90
2018-04-18T01:55:43.801Z,60.90
2018-04-18T01:58:11.723Z,60.90
2018-04-18T02:00:39.864Z,60.90
2018-04-18T02:03:07.795Z,61.70
2018-04-18T02:05:36.579Z,61.00
2018-04-18T02:08:05.269Z,61.00
2018-04-18T02:10:34.016Z,61.00
2018-04-18T02:13:01.940Z,61.00
2018-04-18T02:15:29.875Z,61.00
2018-04-18T02:17:57.856Z,61.10
2018-04-18T02:20:26.636Z,61.10
2018-04-18T02:22:55.480Z,61.20
2018-04-18T02:25:23.396Z,61.10
2018-04-18T02:27:52.130Z,61.30
2018-04-18T02:30:20.070Z,61.30
2018-04-18T02:32:48.095Z,61.40
2018-04-18T02:35:16.071Z,61.40
2018-04-18T02:37:44.048Z,61.50
2018-04-18T02:40:12.015Z,61.60
2018-04-18T02:42:39.976Z,61.50
2018-04-18T02:45:08.014Z,61.60
2018-04-18T02:47:35.938Z,61.70
2018-04-18T02:50:04.801Z,61.70
2018-04-18T02:52:32.813Z,61.80
2018-04-18T02:55:00.836Z,61.80
2018-04-18T02:57:28.853Z,61.80
2018-04-18T02:59:56.927Z,61.90
2018-04-18T03:02:24.955Z,62.00
2018-04-18T03:04:52.891Z,62.00
2018-04-18T03:07:20.817Z,62.20
2018-04-18T03:09:49.503Z,62.30
2018-04-18T03:12:18.304Z,62.30
2018-04-18T03:14:46.230Z,62.30
2018-04-18T03:17:14.195Z,62.30
2018-04-18T03:19:42.131Z,62.40
2018-04-18T03:22:10.054Z,62.50
2018-04-18T03:24:38.764Z,62.60
2018-04-18T03:27:06.714Z,62.50
2018-04-18T03:29:35.494Z,62.70
2018-04-18T03:32:04.215Z,62.70
2018-04-18T03:34:32.204Z,62.60
2018-04-18T03:37:00.141Z,62.80
2018-04-18T03:39:28.144Z,62.80
2018-04-18T03:41:56.074Z,62.80
2018-04-18T03:44:23.992Z,62.90
2018-04-18T03:46:51.928Z,63.00
2018-04-18T03:49:19.837Z,62.80
2018-04-18T03:51:47.832Z,63.00
2018-04-18T03:54:16.586Z,63.10
2018-04-18T03:56:44.584Z,63.10
2018-04-18T03:59:13.289Z,63.20
2018-04-18T04:01:41.232Z,63.20
2018-04-18T04:04:09.223Z,63.20
2018-04-18T04:06:37.252Z,63.20
2018-04-18T04:09:06.012Z,63.30
2018-04-18T04:11:33.960Z,63.30
2018-04-18T04:14:01.971Z,63.30
2018-04-18T04:16:41.760Z,63.40
2018-04-18T04:19:22.349Z,63.50
2018-04-18T04:22:02.190Z,63.50
2018-04-18T04:24:38.253Z,63.50
2018-04-18T04:27:06.271Z,63.50
2018-04-18T04:29:36.028Z,63.60
2018-04-18T04:32:04.020Z,63.50
2018-04-18T04:34:32.092Z,63.50
2018-04-18T04:37:00.137Z,63.60
2018-04-18T04:39:28.860Z,63.80
2018-04-18T04:41:56.819Z,63.80
2018-04-18T04:44:24.756Z,63.70
2018-04-18T04:46:52.708Z,63.80
2018-04-18T04:49:21.401Z,63.90
2018-04-18T04:51:50.139Z,63.90
2018-04-18T04:54:18.075Z,64.00
2018-04-18T04:56:45.996Z,64.10
2018-04-18T04:59:13.916Z,64.20
2018-04-18T05:01:41.831Z,64.20
2018-04-18T05:04:09.844Z,64.30
2018-04-18T05:06:37.836Z,64.40
2018-04-18T05:09:06.748Z,64.40
2018-04-18T05:11:34.748Z,64.40
2018-04-18T05:14:03.620Z,64.50
2018-04-18T05:16:31.543Z,64.50
2018-04-18T05:18:59.475Z,64.50
2018-04-18T05:21:28.202Z,64.40
2018-04-18T05:23:56.286Z,64.40
2018-04-18T05:26:24.394Z,64.50
2018-04-18T05:28:52.472Z,64.40
2018-04-18T05:31:20.459Z,64.30
2018-04-18T05:33:49.163Z,64.20
2018-04-18T05:36:17.183Z,64.20
2018-04-18T05:38:45.172Z,64.20
2018-04-18T05:41:13.966Z,64.10
2018-04-18T05:43:42.677Z,64.60
2018-04-18T05:46:10.661Z,63.80
2018-04-18T05:48:38.694Z,63.70
2018-04-18T05:51:06.647Z,63.60
2018-04-18T05:53:35.448Z,63.50
2018-04-18T05:56:04.179Z,63.40
2018-04-18T05:58:32.193Z,63.40
2018-04-18T06:01:00.180Z,63.30
2018-04-18T06:03:28.212Z,63.30
2018-04-18T06:05:56.244Z,63.20
2018-04-18T06:08:24.241Z,63.10
2018-04-18T06:10:52.911Z,63.00
2018-04-18T06:13:20.842Z,63.00
2018-04-18T06:15:49.536Z,62.60
2018-04-18T06:18:18.248Z,62.60
2018-04-18T06:20:46.167Z,62.60
2018-04-18T06:23:14.081Z,62.50
2018-04-18T06:25:42.095Z,62.50
2018-04-18T06:28:10.007Z,62.60
2018-04-18T06:30:37.962Z,63.20
2018-04-18T06:33:06.731Z,62.10
2018-04-18T06:35:35.512Z,62.20
2018-04-18T06:38:03.557Z,62.10
2018-04-18T06:40:31.528Z,61.90
2018-04-18T06:42:59.468Z,61.80
2018-04-18T06:45:27.484Z,61.90
2018-04-18T06:47:55.424Z,61.80
2018-04-18T06:50:23.410Z,61.70
2018-04-18T06:52:51.360Z,61.60
2018-04-18T06:55:19.303Z,61.50
2018-04-18T06:57:47.231Z,61.40
2018-04-18T07:00:15.219Z,61.40
2018-04-18T07:02:43.987Z,61.20
2018-04-18T07:05:11.997Z,61.10
2018-04-18T07:07:39.907Z,60.80
2018-04-18T07:10:07.839Z,60.80
2018-04-18T07:12:35.766Z,60.60
2018-04-18T07:15:03.724Z,60.80
2018-04-18T07:17:31.628Z,61.40
2018-04-18T07:19:59.746Z,60.50
2018-04-18T07:22:27.691Z,60.50
2018-04-18T07:24:55.660Z,60.30
2018-04-18T07:27:23.761Z,60.20
2018-04-18T07:29:51.795Z,60.00
2018-04-18T07:32:19.803Z,59.80
2018-04-18T07:34:47.801Z,59.80
2018-04-18T07:37:16.548Z,59.20
2018-04-18T07:39:44.596Z,59.20
2018-04-18T07:42:12.573Z,59.20
2018-04-18T07:44:40.496Z,59.20
2018-04-18T07:47:09.210Z,59.20
2018-04-18T07:49:38.571Z,59.20
2018-04-18T07:52:06.670Z,59.30
2018-04-18T07:54:34.641Z,59.30
2018-04-18T07:57:02.548Z,59.10
2018-04-18T07:59:30.563Z,58.80
2018-04-18T08:01:59.297Z,58.70
2018-04-18T08:04:27.281Z,58.60
2018-04-18T08:06:55.276Z,58.30
2018-04-18T08:09:23.284Z,58.00
2018-04-18T08:11:51.321Z,57.90
2018-04-18T08:14:20.008Z,57.70
2018-04-18T08:16:48.789Z,57.50
2018-04-18T08:19:16.700Z,57.50
2018-04-18T08:21:44.806Z,57.50
2018-04-18T08:24:12.739Z,57.20
2018-04-18T08:26:40.792Z,56.70
2018-04-18T08:29:09.499Z,56.20
2018-04-18T08:31:37.560Z,56.20
2018-04-18T08:34:05.531Z,55.90
2018-04-18T08:36:33.601Z,55.70
2018-04-18T08:39:01.542Z,55.40
2018-04-18T08:41:30.260Z,54.80
2018-04-18T08:43:58.168Z,54.70
2018-04-18T08:46:26.139Z,54.40
2018-04-18T08:48:54.126Z,54.30
2018-04-18T08:51:22.842Z,54.00
2018-04-18T08:53:50.868Z,53.80
2018-04-18T08:56:18.884Z,53.70
2018-04-18T08:58:46.823Z,53.40
2018-04-18T09:01:14.767Z,53.10
2018-04-18T09:03:43.663Z,52.80
2018-04-18T09:06:12.072Z,52.50
2018-04-18T09:08:40.933Z,52.10
2018-04-18T09:11:08.892Z,52.00
2018-04-18T09:13:36.921Z,51.90
2018-04-18T09:16:04.879Z,51.40
2018-04-18T09:18:33.565Z,50.80
2018-04-18T09:21:02.319Z,50.50
2018-04-18T09:23:30.207Z,50.50
2018-04-18T09:25:58.863Z,50.10
2018-04-18T09:28:26.866Z,50.00
2018-04-18T09:30:54.795Z,49.80
2018-04-18T09:33:22.685Z,49.50
2018-04-18T09:35:50.618Z,49.30
2018-04-18T09:38:18.660Z,49.30
2018-04-18T09:40:46.562Z,48.90
2018-04-18T09:43:14.479Z,48.60
2018-04-18T09:45:43.108Z,47.90
2018-04-18T09:48:11.067Z,47.80
2018-04-18T09:50:38.978Z,47.50
2018-04-18T09:53:06.857Z,47.10
2018-04-18T09:55:35.517Z,47.00
2018-04-18T09:58:03.484Z,46.90
2018-04-18T10:00:37.112Z,46.70
2018-04-18T10:03:05.826Z,45.90
2018-04-18T10:05:33.703Z,45.80
2018-04-18T10:08:01.617Z,45.90
2018-04-18T10:10:29.588Z,46.00
2018-04-18T10:12:57.478Z,45.80
2018-04-18T10:15:26.213Z,44.70
2018-04-18T10:17:54.169Z,44.60
2018-04-18T10:20:22.076Z,44.30
2018-04-18T10:22:50.141Z,43.60
2018-04-18T10:25:18.154Z,43.20
2018-04-18T10:27:46.083Z,42.80
2018-04-18T10:30:14.014Z,42.40
2018-04-18T10:32:42.087Z,41.80
2018-04-18T10:35:10.092Z,41.10
2018-04-18T10:37:38.215Z,41.10
2018-04-18T10:40:06.165Z,40.60
2018-04-18T10:42:34.116Z,40.40
2018-04-18T10:45:02.829Z,39.80
2018-04-18T10:47:30.742Z,39.80
2018-04-18T10:49:58.709Z,39.60
2018-04-18T10:52:26.684Z,39.30
2018-04-18T10:54:54.716Z,39.60
2018-04-18T10:57:22.652Z,38.60
2018-04-18T10:59:51.352Z,38.30
2018-04-18T11:02:19.271Z,38.30
2018-04-18T11:04:47.209Z,38.00
2018-04-18T11:07:15.228Z,38.10
2018-04-18T11:09:43.163Z,38.00
2018-04-18T11:12:11.117Z,38.00
2018-04-18T11:14:39.069Z,38.30
2018-04-18T11:17:07.025Z,38.00
2018-04-18T11:19:34.981Z,37.90
2018-04-18T11:22:03.695Z,37.50
2018-04-18T11:24:31.688Z,37.40
2018-04-18T11:26:59.656Z,37.80
2018-04-18T11:29:27.683Z,37.70
2018-04-18T11:31:56.384Z,36.60
2018-04-18T11:34:24.313Z,36.60
2018-04-18T11:36:52.263Z,36.10
2018-04-18T11:39:20.188Z,35.80
2018-04-18T11:41:48.132Z,35.60
2018-04-18T11:44:16.800Z,35.20
2018-04-18T11:46:45.048Z,35.10
2018-04-18T11:49:13.141Z,35.00
2018-04-18T11:51:41.060Z,34.70
2018-04-18T11:54:09.055Z,34.20
2018-04-18T11:56:37.004Z,33.80
2018-04-18T11:59:04.954Z,33.80
2018-04-18T12:01:32.947Z,33.50
2018-04-18T12:04:00.889Z,33.00
2018-04-18T12:06:31.810Z,32.60
2018-04-18T12:08:59.812Z,32.50
2018-04-18T12:11:27.719Z,32.40
2018-04-18T12:13:56.483Z,31.90
2018-04-18T12:16:24.490Z,31.90
2018-04-18T12:18:52.425Z,31.50
2018-04-18T12:21:20.409Z,31.50
2018-04-18T12:23:49.021Z,31.30
2018-04-18T12:26:16.961Z,31.20
2018-04-18T12:28:44.869Z,31.20
2018-04-18T12:31:13.620Z,30.60
2018-04-18T12:33:41.631Z,30.50
2018-04-18T12:36:10.341Z,30.40
2018-04-18T12:38:38.260Z,30.30
2018-04-18T12:41:06.206Z,30.50
2018-04-18T12:43:34.328Z,30.40
2018-04-18T12:46:03.056Z,30.00
2018-04-18T12:48:30.969Z,29.90
2018-04-18T12:50:59.620Z,29.70
2018-04-18T12:53:27.525Z,29.60
2018-04-18T12:55:56.314Z,29.90
2018-04-18T12:58:25.020Z,30.00
2018-04-18T13:00:52.954Z,30.00
2018-04-18T13:03:20.901Z,30.10
2018-04-18T13:05:48.861Z,30.20
2018-04-18T13:08:16.804Z,30.50
2018-04-18T13:10:44.759Z,30.60
2018-04-18T13:13:12.677Z,30.90
2018-04-18T13:15:40.624Z,31.40
2018-04-18T13:18:08.687Z,31.60
2018-04-18T13:20:36.643Z,31.70
2018-04-18T13:23:04.708Z,31.90
2018-04-18T13:25:32.702Z,32.00
2018-04-18T13:28:00.701Z,32.10
2018-04-18T13:30:28.617Z,32.40
2018-04-18T13:32:56.515Z,32.30
2018-04-18T13:35:24.456Z,32.20
2018-04-18T13:37:52.562Z,32.30
2018-04-18T13:40:20.562Z,32.40
2018-04-18T13:42:48.579Z,32.60
2018-04-18T13:45:16.551Z,32.50
2018-04-18T13:47:44.545Z,32.60
2018-04-18T13:50:12.481Z,33.10
2018-04-18T13:52:40.437Z,33.10
2018-04-18T13:55:08.435Z,32.90
2018-04-18T13:57:36.363Z,33.10
2018-04-18T14:00:05.123Z,33.30
2018-04-18T14:02:33.090Z,33.30
2018-04-18T14:05:01.009Z,33.30
2018-04-18T14:07:28.955Z,33.00
2018-04-18T14:09:57.673Z,33.20
2018-04-18T14:12:25.589Z,33.20
2018-04-18T14:14:53.542Z,33.20
2018-04-18T14:17:21.473Z,33.10
2018-04-18T14:19:49.460Z,33.40
2018-04-18T14:22:17.458Z,33.60
2018-04-18T14:24:45.472Z,33.90
2018-04-18T14:27:13.491Z,33.80
2018-04-18T14:29:41.437Z,33.90
2018-04-18T14:32:09.396Z,34.00
2018-04-18T14:34:37.308Z,34.00
2018-04-18T14:37:05.317Z,34.60
2018-04-18T14:39:33.248Z,34.70
2018-04-18T14:42:01.184Z,34.50
2018-04-18T14:44:29.100Z,34.70
2018-04-18T14:46:57.826Z,34.50
2018-04-18T14:49:25.740Z,34.50
2018-04-18T14:51:54.553Z,34.30
2018-04-18T14:54:22.541Z,34.30
2018-04-18T14:56:50.480Z,34.40
2018-04-18T14:59:19.220Z,34.60
2018-04-18T15:01:47.224Z,34.60
2018-04-18T15:04:16.049Z,34.90
2018-04-18T15:06:44.064Z,34.80
2018-04-18T15:09:12.054Z,34.90
2018-04-18T15:11:40.733Z,35.20
2018-04-18T15:14:08.620Z,35.10
2018-04-18T15:16:37.304Z,35.10
2018-04-18T15:19:05.980Z,35.20
2018-04-18T15:21:34.668Z,35.30
2018-04-18T15:24:03.375Z,35.40
2018-04-18T15:26:31.301Z,35.40
2018-04-18T15:28:59.217Z,35.40
2018-04-18T15:31:27.300Z,35.50
2018-04-18T15:33:55.289Z,35.60
2018-04-18T15:36:23.232Z,35.60
2018-04-18T15:38:51.220Z,35.60
2018-04-18T15:41:19.158Z,35.70
2018-04-18T15:43:47.080Z,35.70
2018-04-18T15:46:15.020Z,35.60
2018-04-18T15:48:42.928Z,35.50
2018-04-18T15:51:10.940Z,35.50
2018-04-18T15:53:38.923Z,35.70
2018-04-18T15:56:06.927Z,35.70
2018-04-18T15:58:34.835Z,36.10
2018-04-18T16:01:02.847Z,36.20
2018-04-18T16:03:30.799Z,36.00
2018-04-18T16:05:58.798Z,36.20
2018-04-18T16:08:26.684Z,36.10
2018-04-18T16:10:55.412Z,36.00
2018-04-18T16:13:23.415Z,36.00
2018-04-18T16:15:51.341Z,36.00
2018-04-18T16:18:19.277Z,36.00
2018-04-18T16:20:47.965Z,36.10
2018-04-18T16:23:16.708Z,36.10
2018-04-18T16:25:44.769Z,36.10
2018-04-18T16:28:12.757Z,36.10
2018-04-18T16:30:41.794Z,36.30
2018-04-18T16:33:10.612Z,36.40
2018-04-18T16:35:38.552Z,36.30
2018-04-18T16:38:07.272Z,36.30
2018-04-18T16:40:35.244Z,36.30
2018-04-18T16:43:03.184Z,36.30
2018-04-18T16:45:31.263Z,36.30
2018-04-18T16:47:59.229Z,36.40
2018-04-18T16:50:27.124Z,37.40
2018-04-18T16:52:55.129Z,36.70
2018-04-18T16:55:23.144Z,36.70
2018-04-18T16:57:51.152Z,36.80
2018-04-18T17:00:19.052Z,36.80
2018-04-18T17:02:46.980Z,36.90
2018-04-18T17:05:14.898Z,36.80
2018-04-18T17:07:42.936Z,36.90
2018-04-18T17:10:10.851Z,37.00
2018-04-18T17:12:38.841Z,36.90
2018-04-18T17:15:06.860Z,36.80
2018-04-18T17:17:35.616Z,36.80
2018-04-18T17:20:03.618Z,36.80
2018-04-18T17:22:32.371Z,36.90
2018-04-18T17:25:00.299Z,36.80
2018-04-18T17:27:28.237Z,36.90
2018-04-18T17:29:56.943Z,37.20
2018-04-18T17:32:24.866Z,37.10
2018-04-18T17:34:52.852Z,37.10
2018-04-18T17:37:20.779Z,37.10
2018-04-18T17:39:48.763Z,37.20
2018-04-18T17:42:16.730Z,37.30
2018-04-18T17:44:44.645Z,37.60
2018-04-18T17:47:13.364Z,38.00
2018-04-18T17:49:41.248Z,38.00
2018-04-18T17:52:09.938Z,39.20
2018-04-18T17:54:37.901Z,38.60
2018-04-18T17:57:05.851Z,38.70
2018-04-18T17:59:33.839Z,38.70
2018-04-18T18:02:01.769Z,38.80
2018-04-18T18:04:29.751Z,38.80
2018-04-18T18:06:57.661Z,39.10
2018-04-18T18:09:25.616Z,39.20
2018-04-18T18:11:53.609Z,39.40
2018-04-18T18:14:21.608Z,39.80
2018-04-18T18:16:50.313Z,40.30
2018-04-18T18:19:18.200Z,40.30
2018-04-18T18:21:46.232Z,40.60
2018-04-18T18:24:14.187Z,40.80
2018-04-18T18:26:42.861Z,41.10
2018-04-18T18:29:10.860Z,41.10
2018-04-18T18:31:38.880Z,41.30
2018-04-18T18:34:06.800Z,41.40
2018-04-18T18:36:34.721Z,41.50
2018-04-18T18:39:02.668Z,41.70
2018-04-18T18:41:30.620Z,42.10
2018-04-18T18:43:58.561Z,42.40
2018-04-18T18:46:27.265Z,42.40
2018-04-18T18:48:55.292Z,42.40
2018-04-18T18:51:23.373Z,42.50
2018-04-18T18:53:51.440Z,42.90
2018-04-18T18:56:19.651Z,43.50
2018-04-18T18:58:47.981Z,42.90
2018-04-18T19:01:16.287Z,43.00
2018-04-18T19:03:45.437Z,43.30
2018-04-18T19:06:14.659Z,43.30
2018-04-18T19:08:42.984Z,43.50
2018-04-18T19:11:11.407Z,43.90
2018-04-18T19:13:39.697Z,44.40
2018-04-18T19:16:08.030Z,44.50
2018-04-18T19:18:36.423Z,44.70
2018-04-18T19:21:05.407Z,44.80
2018-04-18T19:23:34.730Z,44.70
2018-04-18T19:26:03.894Z,45.20
2018-04-18T19:28:32.291Z,44.70
2018-04-18T19:31:00.597Z,44.60
2018-04-18T19:33:28.932Z,44.70
2018-04-18T19:35:57.391Z,45.00
2018-04-18T19:38:25.671Z,45.00
2018-04-18T19:40:54.127Z,45.00
2018-04-18T19:43:23.143Z,44.90
2018-04-18T19:45:52.338Z,44.90
2018-04-18T19:48:21.255Z,45.00
2018-04-18T19:50:50.378Z,45.10
2018-04-18T19:53:18.811Z,45.20
2018-04-18T19:55:47.801Z,45.20
2018-04-18T19:58:16.043Z,45.20
2018-04-18T20:00:47.306Z,45.40
2018-04-18T20:03:16.329Z,45.90
2018-04-18T20:05:44.656Z,45.80
2018-04-18T20:08:12.967Z,46.00
2018-04-18T20:10:41.227Z,46.20
2018-04-18T20:13:10.335Z,46.40
2018-04-18T20:15:38.767Z,46.40
2018-04-18T20:18:08.184Z,46.90
2018-04-18T20:20:36.534Z,46.40
2018-04-18T20:23:04.799Z,46.60
2018-04-18T20:25:33.136Z,46.70
2018-04-18T20:28:02.880Z,46.90
2018-04-18T20:30:31.753Z,46.80
2018-04-18T20:33:00.105Z,47.00
2018-04-18T20:35:29.138Z,47.20
2018-04-18T20:37:57.379Z,47.20
2018-04-18T20:40:27.335Z,47.40
2018-04-18T20:42:58.141Z,47.40
2018-04-18T20:45:27.189Z,47.60
2018-04-18T20:47:57.346Z,47.60
2018-04-18T20:50:26.386Z,47.70
2018-04-18T20:52:54.643Z,47.70
2018-04-18T20:55:22.983Z,47.80
2018-04-18T20:57:52.670Z,47.90
2018-04-18T21:00:22.010Z,47.90
2018-04-18T21:02:52.055Z,47.90
2018-04-18T21:05:21.645Z,48.40
2018-04-18T21:07:51.156Z,47.90
2018-04-18T21:10:19.848Z,48.00
2018-04-18T21:12:48.507Z,48.00
2018-04-18T21:15:17.853Z,48.20
2018-04-18T21:17:47.680Z,48.20
2018-04-18T21:20:19.945Z,48.30
2018-04-18T21:22:53.382Z,48.40
2018-04-18T21:25:22.775Z,48.50
2018-04-18T21:27:51.308Z,48.50
2018-04-18T21:30:20.018Z,48.50
2018-04-18T21:35:33.852Z,48.70
2018-04-18T21:38:03.051Z,48.90
2018-04-18T21:40:32.637Z,48.80
2018-04-18T21:43:00.974Z,48.90
2018-04-18T21:45:29.780Z,48.90
2018-04-18T21:47:59.671Z,49.10
2018-04-18T21:50:27.881Z,49.10
2018-04-18T21:52:56.070Z,49.20
2018-04-18T21:55:24.362Z,49.90
2018-04-18T21:57:52.684Z,49.40
2018-04-18T22:00:20.917Z,49.50
2018-04-18T22:02:49.122Z,49.40
2018-04-18T22:05:17.370Z,49.50
2018-04-18T22:07:45.595Z,49.60
2018-04-18T22:10:14.680Z,49.90
2018-04-18T22:12:42.839Z,49.90
2018-04-18T22:15:11.073Z,50.00
2018-04-18T22:17:39.250Z,50.00
2018-04-18T22:20:07.537Z,50.20
2018-04-18T22:22:35.822Z,50.20
2018-04-18T22:25:04.251Z,50.30
2018-04-18T22:27:32.501Z,50.30
2018-04-18T22:30:00.761Z,50.50
2018-04-18T22:32:28.965Z,50.50
2018-04-18T22:34:57.789Z,50.50
2018-04-18T22:37:25.720Z,50.50
2018-04-18T22:39:53.771Z,50.50
2018-04-18T22:42:21.693Z,50.50
2018-04-18T22:44:49.593Z,50.60
2018-04-18T22:47:18.379Z,50.70
2018-04-18T22:49:46.408Z,51.30
2018-04-18T22:52:14.356Z,50.80
2018-04-18T22:54:43.131Z,50.60
2018-04-18T22:57:11.096Z,50.60
2018-04-18T22:59:39.008Z,51.20
2018-04-18T23:02:07.011Z,50.60
2018-04-18T23:04:34.932Z,50.60
2018-04-18T23:07:03.148Z,50.60
2018-04-18T23:09:31.360Z,50.70
2018-04-18T23:11:59.320Z,50.70
2018-04-18T23:14:27.274Z,50.80
2018-04-18T23:16:55.256Z,50.80
2018-04-18T23:19:23.185Z,51.00
2018-04-18T23:21:51.204Z,51.00
2018-04-18T23:24:19.286Z,51.10
2018-04-18T23:26:48.074Z,50.90
2018-04-18T23:29:16.842Z,51.00
2018-04-18T23:31:44.876Z,50.90
2018-04-18T23:34:12.890Z,50.90
2018-04-18T23:36:40.892Z,50.90
2018-04-18T23:39:08.932Z,50.90
2018-04-18T23:41:36.897Z,51.00
2018-04-18T23:44:04.883Z,51.00
2018-04-18T23:46:33.660Z,51.10
2018-04-18T23:49:02.416Z,51.10
2018-04-18T23:51:30.416Z,51.10
2018-04-18T23:53:59.126Z,51.20
2018-04-18T23:56:27.104Z,51.10
2018-04-18T23:58:55.036Z,51.20
